createdAt,value
2022-12-14T00:01:52.900Z,100417.63
2022-12-14T00:04:20.782Z,100415.88
2022-12-14T00:06:48.225Z,100411.66
2022-12-14T00:09:16.121Z,100406.63
2022-12-14T00:11:43.590Z,100413.53
2022-12-14T00:14:11.075Z,100417.91
2022-12-14T00:16:38.452Z,100420.53
2022-12-14T00:19:05.877Z,100409.28
2022-12-14T00:21:33.940Z,100400.63
2022-12-14T00:24:01.507Z,100390.38
2022-12-14T00:26:32.208Z,100385.25
2022-12-14T00:29:02.220Z,100390.38
2022-12-14T00:31:32.693Z,100395.41
2022-12-14T00:34:01.352Z,100404.03
2022-12-14T00:36:31.564Z,100398.06
2022-12-14T00:38:59.529Z,100392.88
2022-12-14T00:41:26.954Z,100393.72
2022-12-14T00:43:54.348Z,100392.81
2022-12-14T00:46:22.075Z,100393.63
2022-12-14T00:48:49.608Z,100390.13
2022-12-14T00:51:17.073Z,100385.75
2022-12-14T00:53:44.950Z,100384.94
2022-12-14T00:56:12.727Z,100380.63
2022-12-14T00:58:40.530Z,100375.41
2022-12-14T01:01:14.826Z,100371.13
2022-12-14T01:03:42.503Z,100365.97
2022-12-14T01:06:22.704Z,100360.00
2022-12-14T01:08:50.098Z,100358.25
2022-12-14T01:11:17.802Z,100355.56
2022-12-14T01:13:49.664Z,100350.38
2022-12-14T01:16:18.031Z,100342.56
2022-12-14T01:18:45.823Z,100341.66
2022-12-14T01:21:23.621Z,100335.78
2022-12-14T01:24:03.330Z,100331.56
2022-12-14T01:26:36.424Z,100329.94
2022-12-14T01:29:04.385Z,100323.03
2022-12-14T01:31:35.545Z,100326.50
2022-12-14T01:34:03.759Z,100329.06
2022-12-14T01:36:34.229Z,100323.03
2022-12-14T01:39:09.520Z,100322.19
2022-12-14T01:41:41.816Z,100311.03
2022-12-14T01:44:09.153Z,100310.25
2022-12-14T01:47:12.710Z,100310.25
2022-12-14T01:49:49.764Z,100313.69
2022-12-14T01:52:42.312Z,100317.97
2022-12-14T01:55:34.613Z,100314.38
2022-12-14T01:58:17.577Z,100311.81
2022-12-14T02:00:45.357Z,100312.66
2022-12-14T02:03:22.420Z,100311.72
2022-12-14T02:06:02.167Z,100317.75
2022-12-14T02:08:30.129Z,100304.09
2022-12-14T02:10:59.180Z,100302.44
2022-12-14T02:13:32.464Z,100297.19
2022-12-14T02:16:00.341Z,100300.63
2022-12-14T02:18:31.235Z,100299.84
2022-12-14T02:21:25.084Z,100297.19
2022-12-14T02:24:34.253Z,100283.41
2022-12-14T02:27:27.756Z,100288.50
2022-12-14T02:30:04.391Z,100289.34
2022-12-14T02:33:04.236Z,100282.59
2022-12-14T02:35:44.184Z,100279.09
2022-12-14T02:38:50.290Z,100267.84
2022-12-14T02:41:52.509Z,100264.34
2022-12-14T02:44:48.108Z,100271.09
2022-12-14T02:47:38.685Z,100262.47
2022-12-14T02:51:02.266Z,100265.06
2022-12-14T02:53:53.667Z,100266.84
2022-12-14T02:56:31.735Z,100265.13
2022-12-14T02:59:01.655Z,100272.09
2022-12-14T03:01:30.975Z,100274.72
2022-12-14T03:03:58.630Z,100274.66
2022-12-14T03:06:26.375Z,100274.66
2022-12-14T03:09:11.146Z,100277.31
2022-12-14T03:11:56.065Z,100273.84
2022-12-14T03:14:32.694Z,100261.78
2022-12-14T03:17:25.737Z,100270.41
2022-12-14T03:20:02.018Z,100266.91
2022-12-14T03:22:56.553Z,100261.69
2022-12-14T03:25:41.377Z,100261.69
2022-12-14T03:28:26.503Z,100253.06
2022-12-14T03:31:09.055Z,100253.97
2022-12-14T03:33:40.834Z,100247.09
2022-12-14T03:36:25.784Z,100248.72
2022-12-14T03:38:58.985Z,100243.56
2022-12-14T03:41:33.162Z,100245.31
2022-12-14T03:44:25.690Z,100244.63
2022-12-14T03:47:03.245Z,100231.72
2022-12-14T03:49:51.027Z,100229.94
2022-12-14T03:52:33.636Z,100232.56
2022-12-14T03:55:07.557Z,100224.78
2022-12-14T03:57:53.980Z,100218.75
2022-12-14T04:00:25.147Z,100216.19
2022-12-14T04:03:27.406Z,100222.16
2022-12-14T04:06:19.584Z,100210.94
2022-12-14T04:09:10.312Z,100207.47
2022-12-14T04:12:08.325Z,100209.25
2022-12-14T04:15:05.816Z,100202.38
2022-12-14T04:17:56.935Z,100193.72
2022-12-14T04:20:43.461Z,100198.03
2022-12-14T04:23:40.818Z,100205.88
2022-12-14T04:26:15.318Z,100191.28
2022-12-14T04:29:11.355Z,100194.72
2022-12-14T04:31:45.923Z,100185.31
2022-12-14T04:34:22.757Z,100184.53
2022-12-14T04:36:58.639Z,100183.59
2022-12-14T04:39:33.830Z,100184.47
2022-12-14T04:42:06.602Z,100170.75
2022-12-14T04:44:44.553Z,100167.41
2022-12-14T04:47:17.614Z,100169.13
2022-12-14T04:50:01.224Z,100169.09
2022-12-14T04:52:39.655Z,100163.06
2022-12-14T04:55:23.246Z,100164.84
2022-12-14T04:58:04.654Z,100167.41
2022-12-14T05:00:40.244Z,100166.53
2022-12-14T05:03:29.909Z,100159.78
2022-12-14T05:06:24.145Z,100151.16
2022-12-14T05:09:16.810Z,100153.69
2022-12-14T05:12:07.119Z,100143.44
2022-12-14T05:14:46.208Z,100147.72
2022-12-14T05:17:15.432Z,100139.25
2022-12-14T05:19:49.192Z,100134.16
2022-12-14T05:22:18.078Z,100133.22
2022-12-14T05:24:45.499Z,100132.38
2022-12-14T05:27:13.254Z,100127.25
2022-12-14T05:29:40.684Z,100123.91
2022-12-14T05:32:12.511Z,100132.44
2022-12-14T05:34:40.195Z,100122.09
2022-12-14T05:37:09.582Z,100116.13
2022-12-14T05:39:40.666Z,100116.19
2022-12-14T05:42:08.054Z,100123.06
2022-12-14T05:44:35.466Z,100115.38
2022-12-14T05:47:03.021Z,100116.31
2022-12-14T05:49:30.533Z,100114.59
2022-12-14T05:51:58.001Z,100116.25
2022-12-14T05:54:25.434Z,100111.13
2022-12-14T05:56:53.014Z,100117.22
2022-12-14T05:59:20.461Z,100119.75
2022-12-14T06:01:50.712Z,100115.44
2022-12-14T06:04:19.175Z,100112.00
2022-12-14T06:06:46.809Z,100116.28
2022-12-14T06:09:18.487Z,100114.66
2022-12-14T06:11:46.777Z,100117.19
2022-12-14T06:14:14.590Z,100109.44
2022-12-14T06:16:45.155Z,100107.66
2022-12-14T06:19:14.787Z,100107.66
2022-12-14T06:21:43.784Z,100102.53
2022-12-14T06:24:13.942Z,100106.81
2022-12-14T06:26:42.038Z,100101.63
2022-12-14T06:29:18.632Z,100105.94
2022-12-14T06:31:49.359Z,100110.22
2022-12-14T06:34:19.221Z,100105.88
2022-12-14T06:36:47.996Z,100106.66
2022-12-14T06:39:17.186Z,100101.50
2022-12-14T06:41:49.698Z,100105.78
2022-12-14T06:44:17.295Z,100106.59
2022-12-14T06:46:44.882Z,100106.59
2022-12-14T06:49:15.522Z,100115.16
2022-12-14T06:51:43.827Z,100115.16
2022-12-14T06:54:13.178Z,100118.47
2022-12-14T06:56:41.948Z,100120.91
2022-12-14T06:59:09.828Z,100116.66
2022-12-14T07:01:39.570Z,100121.88
2022-12-14T07:04:08.791Z,100113.25
2022-12-14T07:06:40.364Z,100115.75
2022-12-14T07:09:13.375Z,100114.09
2022-12-14T07:11:41.137Z,100121.81
2022-12-14T07:14:16.806Z,100122.72
2022-12-14T07:16:48.293Z,100133.09
2022-12-14T07:19:18.177Z,100137.31
2022-12-14T07:21:45.638Z,100132.09
2022-12-14T07:24:13.402Z,100137.31
2022-12-14T07:26:40.835Z,100137.34
2022-12-14T07:29:09.269Z,100137.34
2022-12-14T07:31:36.917Z,100139.94
2022-12-14T07:34:04.510Z,100128.81
2022-12-14T07:36:32.935Z,100125.34
2022-12-14T07:39:00.319Z,100130.41
2022-12-14T07:41:31.562Z,100144.06
2022-12-14T07:44:01.021Z,100138.03
2022-12-14T07:46:30.555Z,100133.78
2022-12-14T07:48:59.486Z,100133.84
2022-12-14T07:51:33.744Z,100134.66
2022-12-14T07:54:05.498Z,100132.00
2022-12-14T07:56:36.144Z,100138.78
2022-12-14T07:59:07.025Z,100147.28
2022-12-14T08:01:37.333Z,100146.38
2022-12-14T08:04:09.472Z,100136.13
2022-12-14T08:06:38.839Z,100137.00
2022-12-14T08:09:08.218Z,100141.31
2022-12-14T08:11:36.500Z,100149.91
2022-12-14T08:14:10.796Z,100139.56
2022-12-14T08:16:38.226Z,100141.31
2022-12-14T08:19:05.683Z,100142.16
2022-12-14T08:21:33.071Z,100155.81
2022-12-14T08:24:00.656Z,100157.56
2022-12-14T08:26:34.935Z,100157.56
2022-12-14T08:29:04.885Z,100156.66
2022-12-14T08:31:33.250Z,100166.84
2022-12-14T08:34:02.202Z,100163.25
2022-12-14T08:36:34.040Z,100167.38
2022-12-14T08:39:07.169Z,100168.22
2022-12-14T08:41:35.108Z,100165.47
2022-12-14T08:44:04.349Z,100168.88
2022-12-14T08:46:34.705Z,100161.16
2022-12-14T08:49:02.225Z,100163.72
2022-12-14T08:51:30.408Z,100161.97
2022-12-14T08:53:58.312Z,100155.09
2022-12-14T08:56:27.810Z,100158.38
2022-12-14T08:58:56.891Z,100154.88
2022-12-14T09:01:33.493Z,100168.63
2022-12-14T09:04:05.612Z,100168.59
2022-12-14T09:06:38.955Z,100167.59
2022-12-14T09:09:13.715Z,100168.50
2022-12-14T09:11:45.281Z,100168.41
2022-12-14T09:14:12.786Z,100172.66
2022-12-14T09:16:40.666Z,100175.19
2022-12-14T09:19:08.253Z,100177.81
2022-12-14T09:21:35.743Z,100182.97
2022-12-14T09:24:03.377Z,100187.16
2022-12-14T09:26:30.855Z,100188.88
2022-12-14T09:28:58.341Z,100185.47
2022-12-14T09:31:27.757Z,100188.03
2022-12-14T09:33:56.723Z,100188.91
2022-12-14T09:36:28.402Z,100195.78
2022-12-14T09:38:57.519Z,100186.41
2022-12-14T09:41:36.386Z,100186.47
2022-12-14T09:44:44.654Z,100184.00
2022-12-14T09:48:23.566Z,100174.78
2022-12-14T09:50:53.265Z,100177.41
2022-12-14T09:53:22.939Z,100170.63
2022-12-14T09:55:55.807Z,100170.69
2022-12-14T09:58:28.564Z,100165.72
2022-12-14T10:01:02.246Z,100158.13
2022-12-14T10:03:41.895Z,100159.09
2022-12-14T10:06:42.111Z,100156.69
2022-12-14T10:09:47.780Z,100162.88
2022-12-14T10:12:33.968Z,100156.13
2022-12-14T10:15:27.961Z,100153.66
2022-12-14T10:18:01.273Z,100152.94
2022-12-14T10:20:56.533Z,100159.91
2022-12-14T10:23:27.052Z,100160.88
2022-12-14T10:26:03.486Z,100158.50
2022-12-14T10:29:03.319Z,100153.47
2022-12-14T10:31:47.733Z,100158.69
2022-12-14T10:34:23.484Z,100161.38
2022-12-14T10:37:14.613Z,100157.28
2022-12-14T10:40:19.919Z,100167.69
2022-12-14T10:43:02.523Z,100164.38
2022-12-14T10:45:47.264Z,100168.84
2022-12-14T10:48:43.146Z,100168.97
2022-12-14T10:51:25.669Z,100172.50
2022-12-14T10:54:08.168Z,100164.88
2022-12-14T10:56:41.076Z,100158.06
2022-12-14T10:59:26.513Z,100156.47
2022-12-14T11:02:09.110Z,100160.88
2022-12-14T11:04:47.361Z,100161.81
2022-12-14T11:07:18.490Z,100160.13
2022-12-14T11:09:46.255Z,100154.16
2022-12-14T11:12:13.660Z,100155.97
2022-12-14T11:15:24.432Z,100162.91
2022-12-14T11:18:05.081Z,100166.44
2022-12-14T11:20:34.209Z,100164.81
2022-12-14T11:23:54.295Z,100169.25
2022-12-14T11:26:33.988Z,100167.59
2022-12-14T11:29:06.396Z,100172.81
2022-12-14T11:31:52.426Z,100166.84
2022-12-14T11:34:39.062Z,100172.09
2022-12-14T11:37:31.427Z,100165.31
2022-12-14T11:40:03.995Z,100165.41
2022-12-14T11:42:32.615Z,100160.28
2022-12-14T11:45:31.722Z,100157.75
2022-12-14T11:48:14.505Z,100153.47
2022-12-14T11:50:43.987Z,100156.91
2022-12-14T11:53:15.480Z,100151.75
2022-12-14T11:56:16.714Z,100149.22
2022-12-14T11:58:54.733Z,100150.09
2022-12-14T12:01:27.236Z,100151.84
2022-12-14T12:03:59.316Z,100146.72
2022-12-14T12:06:30.266Z,100145.91
2022-12-14T12:09:03.791Z,100152.84
2022-12-14T12:11:34.591Z,100152.00
2022-12-14T12:14:33.505Z,100145.97
2022-12-14T12:17:01.426Z,100153.72
2022-12-14T12:19:37.142Z,100158.91
2022-12-14T12:22:11.746Z,100158.03
2022-12-14T12:25:24.329Z,100153.75
2022-12-14T12:27:53.966Z,100151.16
2022-12-14T12:30:32.155Z,100152.91
2022-12-14T12:33:27.453Z,100152.06
2022-12-14T12:36:01.084Z,100154.66
2022-12-14T12:39:15.713Z,100154.69
2022-12-14T12:42:10.377Z,100160.72
2022-12-14T12:44:52.904Z,100160.72
2022-12-14T12:47:46.227Z,100163.28
2022-12-14T12:50:21.585Z,100161.56
2022-12-14T12:53:14.541Z,100166.75
2022-12-14T12:55:49.196Z,100173.63
2022-12-14T12:58:27.704Z,100172.75
2022-12-14T13:01:00.521Z,100172.78
2022-12-14T13:03:37.691Z,100186.59
2022-12-14T13:06:22.093Z,100183.16
2022-12-14T13:08:59.019Z,100178.81
2022-12-14T13:11:35.839Z,100180.53
2022-12-14T13:14:41.771Z,100175.38
2022-12-14T13:17:37.135Z,100186.59
2022-12-14T13:20:19.139Z,100183.16
2022-12-14T13:22:49.635Z,100189.16
2022-12-14T13:25:46.404Z,100185.72
2022-12-14T13:28:39.962Z,100190.03
2022-12-14T13:31:39.805Z,100183.13
2022-12-14T13:34:25.601Z,100185.75
2022-12-14T13:37:36.193Z,100180.56
2022-12-14T13:40:28.061Z,100182.31
2022-12-14T13:43:10.776Z,100183.16
2022-12-14T13:45:49.703Z,100184.03
2022-12-14T13:48:27.311Z,100188.31
2022-12-14T13:51:07.053Z,100182.28
2022-12-14T13:53:48.387Z,100186.59
2022-12-14T13:56:32.609Z,100184.00
2022-12-14T13:59:20.675Z,100186.59
2022-12-14T14:01:48.159Z,100181.41
2022-12-14T14:04:29.666Z,100184.91
2022-12-14T14:07:25.326Z,100193.50
2022-12-14T14:09:55.948Z,100195.25
2022-12-14T14:12:33.749Z,100194.34
2022-12-14T14:16:27.948Z,100190.06
2022-12-14T14:19:04.606Z,100194.38
2022-12-14T14:21:58.772Z,100195.22
2022-12-14T14:24:29.547Z,100191.78
2022-12-14T14:27:18.870Z,100197.81
2022-12-14T14:29:49.438Z,100192.63
2022-12-14T14:32:42.797Z,100193.50
2022-12-14T14:35:37.593Z,100196.91
2022-12-14T14:38:28.294Z,100206.38
2022-12-14T14:41:16.635Z,100205.47
2022-12-14T14:43:55.315Z,100212.34
2022-12-14T14:46:45.948Z,100203.69
2022-12-14T14:49:27.321Z,100211.41
2022-12-14T14:51:54.884Z,100213.97
2022-12-14T14:55:15.916Z,100220.00
2022-12-14T14:57:55.338Z,100214.81
2022-12-14T15:00:23.538Z,100214.75
2022-12-14T15:02:53.904Z,100221.63
2022-12-14T15:05:44.324Z,100229.38
2022-12-14T15:08:42.942Z,100237.94
2022-12-14T15:11:22.837Z,100231.88
2022-12-14T15:14:01.735Z,100225.81
2022-12-14T15:16:40.469Z,100235.22
2022-12-14T15:19:36.790Z,100241.22
2022-12-14T15:22:09.255Z,100242.00
2022-12-14T15:24:43.303Z,100245.38
2022-12-14T15:27:24.170Z,100237.56
2022-12-14T15:29:52.944Z,100246.09
2022-12-14T15:32:24.060Z,100246.91
2022-12-14T15:35:01.221Z,100248.59
2022-12-14T15:37:48.527Z,100248.53
2022-12-14T15:40:25.305Z,100249.31
2022-12-14T15:42:59.973Z,100258.72
2022-12-14T15:45:27.614Z,100248.34
2022-12-14T15:47:55.951Z,100258.63
2022-12-14T15:50:32.571Z,100260.25
2022-12-14T15:53:15.156Z,100253.31
2022-12-14T15:55:44.264Z,100263.53
2022-12-14T15:58:33.797Z,100266.91
2022-12-14T16:01:14.111Z,100271.97
2022-12-14T16:03:51.742Z,100270.22
2022-12-14T16:06:20.281Z,100269.28
2022-12-14T16:09:16.165Z,100267.47
2022-12-14T16:11:49.496Z,100261.34
2022-12-14T16:14:26.815Z,100272.44
2022-12-14T16:16:54.630Z,100274.91
2022-12-14T16:19:31.204Z,100274.00
2022-12-14T16:22:20.511Z,100279.06
2022-12-14T16:25:07.457Z,100287.56
2022-12-14T16:27:41.648Z,100286.63
2022-12-14T16:30:34.002Z,100293.34
2022-12-14T16:33:17.130Z,100291.47
2022-12-14T16:35:47.654Z,100300.00
2022-12-14T16:38:18.175Z,100295.66
2022-12-14T16:40:48.431Z,100288.63
2022-12-14T16:43:34.288Z,100297.13
2022-12-14T16:46:07.983Z,100298.78
2022-12-14T16:49:07.358Z,100290.97
2022-12-14T16:52:09.166Z,100300.25
2022-12-14T16:54:33.715Z,100296.75
2022-12-14T16:57:06.874Z,100296.63
2022-12-14T16:59:42.005Z,100307.75
2022-12-14T17:02:39.150Z,100305.91
2022-12-14T17:05:19.041Z,100305.69
2022-12-14T17:07:46.600Z,100314.22
2022-12-14T17:10:21.999Z,100315.09
2022-12-14T17:12:50.400Z,100317.53
2022-12-14T17:15:22.752Z,100325.22
2022-12-14T17:17:53.959Z,100324.19
2022-12-14T17:20:29.890Z,100313.78
2022-12-14T17:23:01.989Z,100332.56
2022-12-14T17:25:32.489Z,100325.75
2022-12-14T17:28:03.659Z,100317.97
2022-12-14T17:30:31.520Z,100313.53
2022-12-14T17:32:59.231Z,100315.22
2022-12-14T17:35:32.155Z,100323.84
2022-12-14T17:37:59.860Z,100317.91
2022-12-14T17:40:27.871Z,100321.31
2022-12-14T17:42:58.517Z,100326.34
2022-12-14T17:45:31.294Z,100336.56
2022-12-14T17:47:59.051Z,100338.22
2022-12-14T17:50:26.602Z,100334.66
2022-12-14T17:52:54.336Z,100342.38
2022-12-14T17:55:27.361Z,100342.38
2022-12-14T17:57:57.843Z,100341.34
2022-12-14T18:00:48.469Z,100336.94
2022-12-14T18:03:19.426Z,100335.09
2022-12-14T18:05:49.581Z,100332.41
2022-12-14T18:08:22.147Z,100329.84
2022-12-14T18:10:59.749Z,100328.91
2022-12-14T18:13:31.051Z,100339.09
2022-12-14T18:16:00.477Z,100339.75
2022-12-14T18:18:29.522Z,100341.31
2022-12-14T18:21:01.814Z,100349.78
2022-12-14T18:23:31.705Z,100349.69
2022-12-14T18:26:00.585Z,100354.78
2022-12-14T18:28:28.014Z,100347.13
2022-12-14T18:31:08.820Z,100350.47
2022-12-14T18:33:36.383Z,100352.06
2022-12-14T18:36:04.123Z,100351.91
2022-12-14T18:38:31.731Z,100354.34
2022-12-14T18:41:01.594Z,100354.34
2022-12-14T18:43:30.108Z,100351.66
2022-12-14T18:45:58.539Z,100359.22
2022-12-14T18:48:26.151Z,100346.28
2022-12-14T18:50:54.913Z,100350.47
2022-12-14T18:53:24.821Z,100348.59
2022-12-14T18:55:52.744Z,100345.91
2022-12-14T18:58:29.108Z,100340.63
2022-12-14T19:01:00.102Z,100349.94
2022-12-14T19:03:32.443Z,100355.81
2022-12-14T19:09:03.504Z,100363.28
2022-12-14T19:11:40.090Z,100373.50
2022-12-14T19:14:07.774Z,100376.81
2022-12-14T19:16:35.283Z,100380.09
2022-12-14T19:19:03.337Z,100377.38
2022-12-14T19:21:31.471Z,100385.81
2022-12-14T19:24:00.265Z,100381.41
2022-12-14T19:26:29.264Z,100382.97
2022-12-14T19:28:57.103Z,100386.31
2022-12-14T19:31:24.582Z,100384.38
2022-12-14T19:33:52.193Z,100385.97
2022-12-14T19:36:19.665Z,100384.09
2022-12-14T19:38:49.543Z,100377.09
2022-12-14T19:41:20.249Z,100388.13
2022-12-14T19:43:48.551Z,100378.56
2022-12-14T19:46:17.645Z,100388.72
2022-12-14T19:48:45.953Z,100389.47
2022-12-14T19:51:14.434Z,100390.19
2022-12-14T19:53:44.130Z,100390.88
2022-12-14T19:56:15.982Z,100390.72
2022-12-14T19:58:44.733Z,100393.97
2022-12-14T20:01:16.462Z,100392.19
2022-12-14T20:03:44.264Z,100399.75
2022-12-14T20:06:11.809Z,100399.69
2022-12-14T20:08:39.259Z,100400.47
2022-12-14T20:11:10.382Z,100405.53
2022-12-14T20:13:38.477Z,100405.44
2022-12-14T20:16:06.303Z,100407.06
2022-12-14T20:18:33.975Z,100412.06
2022-12-14T20:21:08.814Z,100407.69
2022-12-14T20:23:38.316Z,100416.91
2022-12-14T20:26:17.025Z,100406.56
2022-12-14T20:28:52.214Z,100420.19
2022-12-14T20:31:22.176Z,100412.41
2022-12-14T20:33:50.699Z,100417.47
2022-12-14T20:36:18.868Z,100423.41
2022-12-14T20:38:49.246Z,100427.69
2022-12-14T20:41:17.455Z,100437.00
2022-12-14T20:43:45.509Z,100429.34
2022-12-14T20:46:32.402Z,100437.84
2022-12-14T20:49:07.286Z,100439.56
2022-12-14T20:51:38.046Z,100440.28
2022-12-14T20:54:09.162Z,100449.59
2022-12-14T20:56:36.939Z,100453.78
2022-12-14T20:59:05.136Z,100446.84
2022-12-14T21:01:33.308Z,100450.19
2022-12-14T21:04:01.885Z,100454.44
2022-12-14T21:06:29.997Z,100451.00
2022-12-14T21:09:09.996Z,100457.84
2022-12-14T21:12:06.853Z,100472.41
2022-12-14T21:14:37.889Z,100470.78
2022-12-14T21:17:06.453Z,100475.00
2022-12-14T21:19:35.968Z,100483.44
2022-12-14T21:22:05.886Z,100480.75
2022-12-14T21:25:06.634Z,100470.38
2022-12-14T21:27:27.800Z,100470.22
2022-12-14T21:29:55.239Z,100475.34
2022-12-14T21:32:23.104Z,100454.06
2022-12-14T21:34:50.917Z,100468.66
2022-12-14T21:37:19.282Z,100478.19
2022-12-14T21:39:54.428Z,100478.25
2022-12-14T21:42:26.432Z,100480.03
2022-12-14T21:44:55.282Z,100483.56
2022-12-14T21:47:29.382Z,100474.19
2022-12-14T21:49:56.969Z,100477.69
2022-12-14T21:52:27.504Z,100491.41
2022-12-14T21:54:56.155Z,100490.63
2022-12-14T21:57:50.530Z,100490.75
2022-12-14T22:00:19.132Z,100497.66
2022-12-14T22:02:46.857Z,100508.81
2022-12-14T22:05:14.496Z,100506.31
2022-12-14T22:07:41.985Z,100504.69
2022-12-14T22:10:09.571Z,100507.13
2022-12-14T22:12:37.016Z,100517.34
2022-12-14T22:15:04.893Z,100519.00
2022-12-14T22:17:32.394Z,100515.56
2022-12-14T22:19:59.834Z,100509.59
2022-12-14T22:22:27.258Z,100509.63
2022-12-14T22:24:54.665Z,100521.63
2022-12-14T22:27:22.072Z,100515.63
2022-12-14T22:29:49.530Z,100512.22
2022-12-14T22:32:17.332Z,100506.25
2022-12-14T22:34:45.117Z,100507.03
2022-12-14T22:37:16.669Z,100510.31
2022-12-14T22:39:44.418Z,100510.31
2022-12-14T22:42:18.636Z,100511.09
2022-12-14T22:44:48.865Z,100514.53
2022-12-14T22:47:16.307Z,100519.56
2022-12-14T22:49:43.777Z,100531.38
2022-12-14T22:52:11.354Z,100543.28
2022-12-14T22:54:39.589Z,100534.69
2022-12-14T22:57:15.080Z,100532.06
2022-12-14T22:59:52.128Z,100535.50
2022-12-14T23:02:19.766Z,100535.47
2022-12-14T23:04:49.773Z,100546.50
2022-12-14T23:07:17.859Z,100546.56
2022-12-14T23:10:03.944Z,100554.25
2022-12-14T23:12:50.040Z,100557.66
2022-12-14T23:15:36.275Z,100556.91
2022-12-14T23:18:25.945Z,100553.53
2022-12-14T23:21:13.127Z,100558.72
2022-12-14T23:24:03.328Z,100547.78
2022-12-14T23:26:50.113Z,100555.53
2022-12-14T23:29:36.013Z,100557.31
2022-12-14T23:32:25.268Z,100559.16
2022-12-14T23:35:11.535Z,100559.31
2022-12-14T23:37:57.704Z,100561.09
2022-12-14T23:40:43.697Z,100564.63
2022-12-14T23:43:36.112Z,100550.25
2022-12-14T23:46:23.648Z,100542.59
2022-12-14T23:49:15.378Z,100546.94
2022-12-14T23:52:02.223Z,100544.38
2022-12-14T23:54:48.641Z,100550.41
2022-12-14T23:57:35.751Z,100545.34
